createdAt,value
2018-04-30T00:00:06.517Z,90.23
2018-04-30T00:01:06.955Z,90.61
2018-04-30T00:02:07.396Z,90.33
2018-04-30T00:03:07.822Z,89.94
2018-04-30T00:04:08.262Z,90.23
2018-04-30T00:05:08.694Z,90.52
2018-04-30T00:06:09.129Z,90.33
2018-04-30T00:07:09.563Z,91.00
2018-04-30T00:08:09.998Z,91.09
2018-04-30T00:09:10.441Z,90.33
2018-04-30T00:10:10.874Z,90.52
2018-04-30T00:11:11.307Z,90.90
2018-04-30T00:12:11.748Z,90.33
2018-04-30T00:13:12.174Z,91.09
2018-04-30T00:14:12.614Z,90.61
2018-04-30T00:15:13.051Z,90.23
2018-04-30T00:16:13.484Z,90.61
2018-04-30T00:17:13.914Z,90.52
2018-04-30T00:18:14.353Z,90.23
2018-04-30T00:19:14.787Z,90.23
2018-04-30T00:20:15.223Z,90.33
2018-04-30T00:21:15.660Z,90.52
2018-04-30T00:22:16.093Z,90.42
2018-04-30T00:23:16.530Z,90.42
2018-04-30T00:24:16.962Z,90.33
2018-04-30T00:25:17.398Z,90.42
2018-04-30T00:26:17.840Z,90.42
2018-04-30T00:27:18.271Z,90.61
2018-04-30T00:28:18.699Z,90.04
2018-04-30T00:29:19.150Z,90.33
2018-04-30T00:30:19.579Z,90.52
2018-04-30T00:31:20.012Z,90.23
2018-04-30T00:32:20.447Z,90.42
2018-04-30T00:33:20.892Z,90.42
2018-04-30T00:34:21.318Z,90.04
2018-04-30T00:35:21.754Z,90.42
2018-04-30T00:36:22.190Z,90.42
2018-04-30T00:37:22.619Z,89.75
2018-04-30T00:38:23.061Z,89.85
2018-04-30T00:39:23.498Z,90.14
2018-04-30T00:40:23.937Z,89.75
2018-04-30T00:41:24.364Z,89.18
2018-04-30T00:42:24.798Z,89.65
2018-04-30T00:43:25.231Z,89.56
2018-04-30T00:44:25.668Z,89.85
2018-04-30T00:45:26.104Z,89.56
2018-04-30T00:46:26.544Z,89.85
2018-04-30T00:47:26.976Z,89.18
2018-04-30T00:48:27.408Z,89.18
2018-04-30T00:49:27.842Z,88.79
2018-04-30T00:50:28.277Z,89.18
2018-04-30T00:51:28.711Z,88.70
2018-04-30T00:52:29.155Z,88.60
2018-04-30T00:53:29.585Z,88.60
2018-04-30T00:54:30.018Z,88.60
2018-04-30T00:55:30.458Z,88.98
2018-04-30T00:56:30.886Z,88.31
2018-04-30T00:57:31.335Z,88.31
2018-04-30T00:58:31.838Z,88.41
2018-04-30T00:59:32.201Z,88.41
2018-04-30T01:00:32.628Z,88.22
2018-04-30T01:01:33.064Z,87.26
2018-04-30T01:02:33.496Z,88.12
2018-04-30T01:03:33.957Z,87.35
2018-04-30T01:04:35.367Z,87.35
2018-04-30T01:05:34.802Z,87.16
2018-04-30T01:06:35.243Z,87.35
2018-04-30T01:07:35.672Z,87.07
2018-04-30T01:08:36.127Z,86.88
2018-04-30T01:09:36.546Z,86.58
2018-04-30T01:10:36.979Z,86.78
2018-04-30T01:11:37.412Z,86.58
2018-04-30T01:12:37.849Z,86.11
2018-04-30T01:13:38.281Z,86.30
2018-04-30T01:14:38.719Z,85.25
2018-04-30T01:15:39.156Z,85.25
2018-04-30T01:16:39.588Z,84.95
2018-04-30T01:17:40.029Z,85.05
2018-04-30T01:18:40.455Z,84.86
2018-04-30T01:19:40.901Z,84.77
2018-04-30T01:20:41.334Z,84.28
2018-04-30T01:21:41.766Z,84.28
2018-04-30T01:22:42.199Z,84.38
2018-04-30T01:23:42.642Z,83.91
2018-04-30T01:24:43.073Z,84.00
2018-04-30T01:25:43.501Z,83.42
2018-04-30T01:26:43.944Z,83.04
2018-04-30T01:27:44.371Z,82.56
2018-04-30T01:28:44.809Z,82.94
2018-04-30T01:29:45.239Z,83.23
2018-04-30T01:30:45.680Z,82.81
2018-04-30T01:31:46.115Z,83.00
2018-04-30T01:32:46.544Z,82.27
2018-04-30T01:33:47.008Z,81.08
2018-04-30T01:34:47.409Z,81.79
2018-04-30T01:35:47.857Z,81.75
2018-04-30T01:36:48.283Z,81.37
2018-04-30T01:37:48.724Z,80.99
2018-04-30T01:38:49.155Z,81.18
2018-04-30T01:39:49.591Z,80.51
2018-04-30T01:40:50.023Z,80.32
2018-04-30T01:41:50.464Z,80.60
2018-04-30T01:42:50.894Z,80.32
2018-04-30T01:43:51.328Z,79.74
2018-04-30T01:44:51.764Z,80.03
2018-04-30T01:45:52.195Z,80.03
2018-04-30T01:46:52.635Z,78.78
2018-04-30T01:47:53.069Z,79.07
2018-04-30T01:48:53.508Z,79.07
2018-04-30T01:49:53.938Z,78.97
2018-04-30T01:50:54.387Z,78.97
2018-04-30T01:51:54.812Z,77.63
2018-04-30T01:52:55.240Z,78.49
2018-04-30T01:53:55.673Z,78.30
2018-04-30T01:54:56.109Z,76.77
2018-04-30T01:55:56.543Z,77.06
2018-04-30T01:56:56.978Z,76.86
2018-04-30T01:57:57.415Z,77.44
2018-04-30T01:58:57.851Z,76.77
2018-04-30T01:59:58.282Z,76.39
2018-04-30T02:00:58.716Z,77.34
2018-04-30T02:01:59.148Z,76.29
2018-04-30T02:02:59.582Z,76.10
2018-04-30T02:04:00.026Z,75.23
2018-04-30T02:05:00.455Z,74.66
2018-04-30T02:06:00.899Z,74.85
2018-04-30T02:07:01.322Z,75.14
2018-04-30T02:08:01.755Z,74.66
2018-04-30T02:09:02.192Z,74.27
2018-04-30T02:10:02.633Z,74.37
2018-04-30T02:11:03.061Z,74.76
2018-04-30T02:12:03.496Z,73.80
2018-04-30T02:13:03.930Z,73.80
2018-04-30T02:14:04.371Z,73.51
2018-04-30T02:15:04.796Z,73.61
2018-04-30T02:16:05.232Z,72.84
2018-04-30T02:17:05.665Z,72.13
2018-04-30T02:18:06.097Z,72.13
2018-04-30T02:19:06.541Z,72.32
2018-04-30T02:20:06.966Z,71.78
2018-04-30T02:21:07.399Z,70.79
2018-04-30T02:22:07.835Z,71.84
2018-04-30T02:23:08.272Z,71.98
2018-04-30T02:24:08.703Z,72.42
2018-04-30T02:25:09.139Z,71.27
2018-04-30T02:26:09.574Z,71.84
2018-04-30T02:27:10.006Z,71.17
2018-04-30T02:28:10.437Z,70.98
2018-04-30T02:29:10.875Z,69.74
2018-04-30T02:30:11.317Z,70.50
2018-04-30T02:31:11.746Z,71.08
2018-04-30T02:32:12.176Z,70.50
2018-04-30T02:33:12.619Z,70.70
2018-04-30T02:34:13.048Z,69.93
2018-04-30T02:35:13.478Z,70.70
2018-04-30T02:36:13.932Z,69.83
2018-04-30T02:37:14.347Z,68.68
2018-04-30T02:38:14.785Z,69.83
2018-04-30T02:39:15.224Z,70.21
2018-04-30T02:40:15.646Z,69.17
2018-04-30T02:41:16.077Z,69.54
2018-04-30T02:42:16.521Z,70.21
2018-04-30T02:43:16.948Z,68.97
2018-04-30T02:44:17.382Z,68.40
2018-04-30T02:45:17.826Z,68.78
2018-04-30T02:46:18.251Z,68.30
2018-04-30T02:47:18.688Z,68.49
2018-04-30T02:48:19.122Z,67.15
2018-04-30T02:49:19.551Z,68.30
2018-04-30T02:50:19.990Z,68.30
2018-04-30T02:51:20.425Z,67.15
2018-04-30T02:52:20.852Z,68.97
2018-04-30T02:53:21.290Z,66.77
2018-04-30T02:54:21.725Z,68.30
2018-04-30T02:55:22.158Z,66.64
2018-04-30T02:56:22.594Z,66.54
2018-04-30T02:57:23.027Z,66.45
2018-04-30T02:58:23.455Z,65.88
2018-04-30T02:59:23.893Z,67.02
2018-04-30T03:00:24.321Z,66.38
2018-04-30T03:01:24.759Z,66.74
2018-04-30T03:02:25.200Z,66.06
2018-04-30T03:03:25.627Z,66.54
2018-04-30T03:04:26.058Z,66.86
2018-04-30T03:05:26.496Z,67.02
2018-04-30T03:06:26.949Z,67.79
2018-04-30T03:07:27.361Z,66.93
2018-04-30T03:08:27.793Z,67.11
2018-04-30T03:09:28.231Z,67.11
2018-04-30T03:10:28.658Z,66.83
2018-04-30T03:11:29.097Z,66.83
2018-04-30T03:12:29.528Z,67.11
2018-04-30T03:13:29.976Z,67.79
2018-04-30T03:14:30.393Z,67.11
2018-04-30T03:15:30.843Z,66.93
2018-04-30T03:16:31.262Z,67.11
2018-04-30T03:17:31.693Z,66.83
2018-04-30T03:18:32.130Z,67.41
2018-04-30T03:19:32.563Z,66.06
2018-04-30T03:20:32.999Z,66.83
2018-04-30T03:21:33.429Z,66.45
2018-04-30T03:22:33.862Z,67.69
2018-04-30T03:23:34.296Z,66.83
2018-04-30T03:24:34.732Z,66.83
2018-04-30T03:25:35.163Z,66.45
2018-04-30T03:26:35.600Z,67.02
2018-04-30T03:27:36.030Z,67.02
2018-04-30T03:28:36.463Z,67.50
2018-04-30T03:29:36.898Z,67.69
2018-04-30T03:30:37.332Z,68.36
2018-04-30T03:31:37.759Z,67.79
2018-04-30T03:32:38.196Z,67.88
2018-04-30T03:33:38.631Z,68.65
2018-04-30T03:34:39.091Z,69.13
2018-04-30T03:35:39.497Z,69.32
2018-04-30T03:36:39.927Z,69.42
2018-04-30T03:37:40.368Z,69.32
2018-04-30T03:38:40.799Z,69.23
2018-04-30T03:39:41.233Z,70.47
2018-04-30T03:40:41.660Z,70.37
2018-04-30T03:41:42.095Z,69.13
2018-04-30T03:42:42.538Z,70.28
2018-04-30T03:43:42.962Z,70.56
2018-04-30T03:44:43.398Z,70.76
2018-04-30T03:45:43.823Z,70.56
2018-04-30T03:46:44.263Z,70.91
2018-04-30T03:47:44.696Z,71.81
2018-04-30T03:48:45.133Z,72.34
2018-04-30T03:49:45.614Z,70.43
2018-04-30T03:50:45.995Z,71.68
2018-04-30T03:51:46.432Z,71.48
2018-04-30T03:52:46.869Z,71.87
2018-04-30T03:53:47.288Z,72.34
2018-04-30T03:54:47.725Z,73.40
2018-04-30T03:55:48.161Z,73.02
2018-04-30T03:56:48.600Z,73.21
2018-04-30T03:57:49.021Z,73.30
2018-04-30T03:58:49.456Z,73.59
2018-04-30T03:59:49.893Z,73.30
2018-04-30T04:00:50.328Z,73.97
2018-04-30T04:01:50.756Z,74.93
2018-04-30T04:02:51.189Z,74.55
2018-04-30T04:03:51.657Z,73.88
2018-04-30T04:04:52.095Z,75.02
2018-04-30T04:05:52.488Z,74.65
2018-04-30T04:06:52.933Z,75.60
2018-04-30T04:07:53.354Z,75.98
2018-04-30T04:08:53.786Z,75.31
2018-04-30T04:09:54.220Z,76.18
2018-04-30T04:10:54.660Z,76.18
2018-04-30T04:11:55.099Z,75.79
2018-04-30T04:12:55.513Z,75.60
2018-04-30T04:13:55.955Z,76.65
2018-04-30T04:14:56.384Z,76.56
2018-04-30T04:15:56.820Z,76.18
2018-04-30T04:16:57.253Z,76.27
2018-04-30T04:17:57.687Z,76.65
2018-04-30T04:18:58.120Z,76.75
2018-04-30T04:19:58.553Z,77.13
2018-04-30T04:20:58.977Z,76.84
2018-04-30T04:21:59.419Z,77.61
2018-04-30T04:22:59.850Z,77.70
2018-04-30T04:24:00.281Z,76.65
2018-04-30T04:25:00.719Z,77.33
2018-04-30T04:26:01.141Z,77.61
2018-04-30T04:27:03.533Z,77.23
2018-04-30T04:28:03.867Z,78.28
2018-04-30T04:29:02.457Z,78.09
2018-04-30T04:30:02.876Z,77.90
2018-04-30T04:31:03.311Z,78.28
2018-04-30T04:32:03.742Z,78.19
2018-04-30T04:33:04.183Z,77.61
2018-04-30T04:34:04.634Z,78.28
2018-04-30T04:35:05.852Z,78.19
2018-04-30T04:36:05.471Z,78.38
2018-04-30T04:37:05.907Z,77.61
2018-04-30T04:38:06.339Z,78.19
2018-04-30T04:39:06.777Z,77.99
2018-04-30T04:40:07.205Z,78.38
2018-04-30T04:41:07.635Z,78.86
2018-04-30T04:42:08.075Z,79.24
2018-04-30T04:43:08.501Z,78.86
2018-04-30T04:44:08.957Z,79.72
2018-04-30T04:45:09.444Z,79.43
2018-04-30T04:46:09.809Z,79.62
2018-04-30T04:47:10.240Z,79.72
2018-04-30T04:48:10.669Z,79.72
2018-04-30T04:49:11.101Z,80.10
2018-04-30T04:50:11.603Z,80.38
2018-04-30T04:51:11.970Z,80.00
2018-04-30T04:52:12.401Z,80.10
2018-04-30T04:53:12.834Z,80.48
2018-04-30T04:54:13.268Z,80.43
2018-04-30T04:55:13.698Z,80.77
2018-04-30T04:56:16.859Z,81.10
2018-04-30T04:57:14.574Z,81.29
2018-04-30T04:58:15.002Z,81.20
2018-04-30T04:59:15.437Z,81.96
2018-04-30T05:00:15.867Z,81.57
2018-04-30T05:01:16.309Z,81.44
2018-04-30T05:02:16.750Z,81.67
2018-04-30T05:03:17.167Z,81.96
2018-04-30T05:04:17.600Z,81.48
2018-04-30T05:05:18.034Z,81.67
2018-04-30T05:06:18.467Z,81.77
2018-04-30T05:07:18.902Z,81.86
2018-04-30T05:08:19.343Z,82.15
2018-04-30T05:09:19.766Z,81.86
2018-04-30T05:10:20.201Z,81.57
2018-04-30T05:11:20.633Z,82.15
2018-04-30T05:12:21.067Z,82.82
2018-04-30T05:13:21.499Z,82.82
2018-04-30T05:14:21.936Z,82.73
2018-04-30T05:15:22.371Z,82.73
2018-04-30T05:16:22.850Z,82.82
2018-04-30T05:17:23.235Z,83.01
2018-04-30T05:18:23.676Z,83.01
2018-04-30T05:19:24.102Z,83.11
2018-04-30T05:20:24.547Z,83.01
2018-04-30T05:21:24.983Z,83.11
2018-04-30T05:22:25.411Z,83.34
2018-04-30T05:23:25.839Z,83.20
2018-04-30T05:24:26.269Z,83.63
2018-04-30T05:25:26.704Z,83.59
2018-04-30T05:26:27.137Z,83.63
2018-04-30T05:27:27.575Z,83.82
2018-04-30T05:28:28.009Z,83.82
2018-04-30T05:29:28.444Z,83.53
2018-04-30T05:30:28.874Z,83.63
2018-04-30T05:31:29.311Z,83.63
2018-04-30T05:32:29.740Z,84.20
2018-04-30T05:33:30.174Z,83.72
2018-04-30T05:34:30.614Z,84.20
2018-04-30T05:35:31.046Z,84.20
2018-04-30T05:36:31.481Z,84.11
2018-04-30T05:37:31.918Z,83.92
2018-04-30T05:38:32.345Z,84.01
2018-04-30T05:39:32.781Z,84.39
2018-04-30T05:40:33.219Z,84.30
2018-04-30T05:41:33.653Z,84.49
2018-04-30T05:42:34.085Z,85.39
2018-04-30T05:43:34.520Z,84.63
2018-04-30T05:44:34.956Z,84.91
2018-04-30T05:45:35.385Z,85.68
2018-04-30T05:46:35.824Z,85.44
2018-04-30T05:47:36.261Z,85.39
2018-04-30T05:48:36.703Z,85.92
2018-04-30T05:49:37.125Z,85.72
2018-04-30T05:50:37.559Z,86.68
2018-04-30T05:51:38.003Z,86.49
2018-04-30T05:52:38.447Z,86.78
2018-04-30T05:53:38.872Z,86.78
2018-04-30T05:54:39.305Z,86.97
2018-04-30T05:55:39.739Z,87.45
2018-04-30T05:56:40.180Z,87.30
2018-04-30T05:57:40.615Z,87.07
2018-04-30T05:58:41.050Z,87.49
2018-04-30T05:59:41.485Z,87.35
2018-04-30T06:00:41.921Z,87.26
2018-04-30T06:01:42.356Z,87.55
2018-04-30T06:02:42.800Z,87.55
2018-04-30T06:03:43.239Z,87.45
2018-04-30T06:04:43.669Z,87.45
2018-04-30T06:05:44.102Z,87.45
2018-04-30T06:06:44.616Z,87.45
2018-04-30T06:07:44.977Z,87.74
2018-04-30T06:08:45.412Z,87.55
2018-04-30T06:09:45.852Z,87.59
2018-04-30T06:10:46.297Z,87.74
2018-04-30T06:11:46.728Z,87.07
2018-04-30T06:12:47.162Z,87.45
2018-04-30T06:13:47.591Z,87.45
2018-04-30T06:14:48.041Z,87.55
2018-04-30T06:15:48.467Z,87.21
2018-04-30T06:16:48.898Z,87.16
2018-04-30T06:17:49.339Z,87.21
2018-04-30T06:18:49.773Z,87.21
2018-04-30T06:19:50.218Z,87.59
2018-04-30T06:20:50.643Z,87.30
2018-04-30T06:21:51.201Z,88.07
2018-04-30T06:22:51.519Z,87.49
2018-04-30T06:23:51.954Z,87.78
2018-04-30T06:24:52.395Z,88.17
2018-04-30T06:25:52.828Z,88.07
2018-04-30T06:26:53.330Z,88.07
2018-04-30T06:27:53.702Z,87.88
2018-04-30T06:28:54.137Z,87.92
2018-04-30T06:29:54.577Z,88.11
2018-04-30T06:30:55.012Z,88.11
2018-04-30T06:31:55.447Z,88.11
2018-04-30T06:32:55.885Z,87.92
2018-04-30T06:33:56.325Z,87.92
2018-04-30T06:34:56.757Z,87.92
2018-04-30T06:35:57.192Z,87.96
2018-04-30T06:36:57.633Z,88.06
2018-04-30T06:37:58.068Z,87.87
2018-04-30T06:38:58.504Z,87.96
2018-04-30T06:39:58.944Z,88.06
2018-04-30T06:40:59.380Z,88.39
2018-04-30T06:41:59.825Z,88.20
2018-04-30T06:43:00.259Z,88.30
2018-04-30T06:44:00.786Z,88.39
2018-04-30T06:45:01.141Z,87.82
2018-04-30T06:46:01.572Z,87.86
2018-04-30T06:47:02.018Z,87.42
2018-04-30T06:48:02.446Z,86.69
2018-04-30T06:49:02.890Z,86.31
2018-04-30T06:50:03.328Z,86.07
2018-04-30T06:51:03.763Z,85.43
2018-04-30T06:52:04.208Z,84.47
2018-04-30T06:53:04.653Z,84.56
2018-04-30T06:54:05.101Z,84.66
2018-04-30T06:55:05.530Z,84.95
2018-04-30T06:56:05.972Z,84.86
2018-04-30T06:57:06.412Z,84.12
2018-04-30T06:58:06.857Z,82.14
2018-04-30T06:59:07.368Z,81.47
2018-04-30T07:00:07.756Z,80.41
2018-04-30T07:01:08.176Z,80.06
2018-04-30T07:02:08.635Z,80.45
2018-04-30T07:03:09.067Z,78.56
2018-04-30T07:04:09.520Z,77.78
2018-04-30T07:05:09.955Z,77.30
2018-04-30T07:06:10.400Z,77.84
2018-04-30T07:07:10.854Z,77.78
2018-04-30T07:08:11.293Z,77.59
2018-04-30T07:09:11.823Z,76.76
2018-04-30T07:10:12.182Z,77.01
2018-04-30T07:11:12.628Z,76.15
2018-04-30T07:12:13.077Z,76.63
2018-04-30T07:13:13.531Z,77.50
2018-04-30T07:14:13.998Z,77.30
2018-04-30T07:15:14.417Z,76.37
2018-04-30T07:16:14.860Z,75.99
2018-04-30T07:17:15.312Z,75.89
2018-04-30T07:18:15.756Z,75.93
2018-04-30T07:19:16.281Z,74.42
2018-04-30T07:20:16.655Z,72.58
2018-04-30T07:21:17.106Z,72.94
2018-04-30T07:23:53.197Z,73.07
2018-04-30T07:24:53.640Z,72.78
2018-04-30T07:26:48.231Z,72.20
2018-04-30T07:27:48.698Z,73.22
2018-04-30T07:29:44.342Z,72.24
2018-04-30T07:30:44.776Z,70.92
2018-04-30T07:32:39.398Z,69.46
2018-04-30T07:33:39.847Z,69.17
2018-04-30T07:35:34.456Z,69.82
2018-04-30T07:36:34.905Z,69.62
2018-04-30T07:38:29.511Z,70.10
2018-04-30T07:39:29.951Z,70.14
2018-04-30T07:41:24.550Z,69.08
2018-04-30T07:42:25.010Z,70.20
2018-04-30T07:44:19.665Z,69.62
2018-04-30T07:45:20.061Z,69.75
2018-04-30T07:47:15.650Z,69.50
2018-04-30T07:48:16.117Z,67.85
2018-04-30T07:50:10.729Z,69.46
2018-04-30T07:51:11.213Z,69.56
2018-04-30T07:53:05.791Z,70.10
2018-04-30T07:54:06.256Z,69.46
2018-04-30T07:56:03.108Z,69.53
2018-04-30T07:57:01.958Z,69.53
2018-04-30T07:58:02.416Z,70.30
2018-04-30T07:59:02.866Z,70.24
2018-04-30T08:00:03.350Z,70.27
2018-04-30T08:01:03.779Z,68.37
2018-04-30T08:02:04.229Z,67.79
2018-04-30T08:03:04.733Z,67.44
2018-04-30T08:04:05.152Z,66.75
2018-04-30T08:05:05.628Z,66.27
2018-04-30T08:06:06.067Z,67.40
2018-04-30T08:07:06.522Z,67.30
2018-04-30T08:08:08.605Z,67.21
2018-04-30T08:09:07.477Z,66.82
2018-04-30T08:10:07.884Z,67.30
2018-04-30T08:11:08.346Z,67.69
2018-04-30T08:12:08.804Z,67.30
2018-04-30T08:13:09.257Z,66.95
2018-04-30T08:14:09.714Z,67.11
2018-04-30T08:15:10.173Z,67.60
2018-04-30T08:16:10.635Z,66.85
2018-04-30T08:17:11.091Z,66.08
2018-04-30T08:18:11.546Z,66.75
2018-04-30T08:19:12.004Z,65.34
2018-04-30T08:20:12.454Z,65.20
2018-04-30T08:21:12.917Z,65.34
2018-04-30T08:22:13.380Z,64.78
2018-04-30T08:23:13.833Z,62.71
2018-04-30T08:24:14.296Z,61.07
2018-04-30T08:25:14.750Z,60.71
2018-04-30T08:26:15.215Z,60.25
2018-04-30T08:27:15.665Z,57.68
2018-04-30T08:28:16.123Z,56.09
2018-04-30T08:29:16.583Z,55.18
2018-04-30T08:30:17.049Z,55.08
2018-04-30T08:31:17.532Z,54.72
2018-04-30T08:32:17.971Z,54.47
2018-04-30T08:33:18.422Z,55.61
2018-04-30T08:34:18.883Z,55.74
2018-04-30T08:35:19.346Z,54.60
2018-04-30T08:36:19.804Z,53.60
2018-04-30T08:37:20.275Z,51.17
2018-04-30T08:38:20.733Z,50.63
2018-04-30T08:39:21.189Z,48.83
2018-04-30T08:40:21.646Z,48.68
2018-04-30T08:41:22.106Z,50.02
2018-04-30T08:42:22.576Z,50.19
2018-04-30T08:43:23.034Z,50.09
2018-04-30T08:44:23.496Z,50.29
2018-04-30T08:45:23.975Z,49.90
2018-04-30T08:46:24.429Z,49.99
2018-04-30T08:47:24.889Z,49.80
2018-04-30T08:48:25.346Z,50.48
2018-04-30T08:49:25.819Z,50.19
2018-04-30T08:50:26.281Z,49.99
2018-04-30T08:51:26.738Z,49.19
2018-04-30T08:52:27.196Z,46.50
2018-04-30T08:53:27.663Z,45.69
2018-04-30T08:54:28.218Z,42.91
2018-04-30T08:55:28.596Z,42.35
2018-04-30T08:56:31.640Z,40.82
2018-04-30T08:57:29.528Z,39.78
2018-04-30T08:58:30.002Z,42.52
2018-04-30T08:59:30.458Z,45.29
2018-04-30T09:00:30.964Z,45.97
2018-04-30T09:01:31.393Z,47.53
2018-04-30T09:02:31.852Z,46.95
2018-04-30T09:03:32.318Z,44.59
2018-04-30T09:04:32.784Z,44.48
2018-04-30T09:05:33.247Z,43.42
2018-04-30T09:06:33.708Z,43.03
2018-04-30T09:07:34.196Z,42.54
2018-04-30T09:08:34.655Z,42.64
2018-04-30T09:09:35.122Z,42.46
2018-04-30T09:10:35.569Z,41.97
2018-04-30T09:11:36.041Z,41.42
2018-04-30T09:12:36.517Z,40.47
2018-04-30T09:13:36.968Z,39.51
2018-04-30T09:14:37.447Z,40.19
2018-04-30T09:15:37.902Z,39.22
2018-04-30T09:16:38.368Z,39.03
2018-04-30T09:17:38.843Z,39.11
2018-04-30T09:18:39.302Z,39.29
2018-04-30T09:19:39.768Z,39.14
2018-04-30T09:20:40.257Z,38.21
2018-04-30T09:21:40.705Z,38.92
2018-04-30T09:22:41.200Z,38.41
2018-04-30T09:23:41.688Z,39.29
2018-04-30T09:24:42.105Z,39.01
2018-04-30T09:25:42.571Z,39.11
2018-04-30T09:26:43.046Z,38.88
2018-04-30T09:27:43.510Z,39.72
2018-04-30T09:28:43.985Z,39.56
2018-04-30T09:29:44.446Z,39.17
2018-04-30T09:30:44.920Z,39.69
2018-04-30T09:31:45.394Z,38.25
2018-04-30T09:32:45.850Z,38.33
2018-04-30T09:33:46.317Z,38.04
2018-04-30T09:34:46.795Z,36.93
2018-04-30T09:35:47.255Z,35.64
2018-04-30T09:36:47.722Z,38.10
2018-04-30T09:37:48.197Z,39.33
2018-04-30T09:38:48.761Z,39.25
2018-04-30T09:39:49.139Z,39.23
2018-04-30T09:40:49.590Z,37.17
2018-04-30T09:41:50.068Z,36.66
2018-04-30T09:42:50.534Z,37.41
2018-04-30T09:43:51.028Z,37.71
2018-04-30T09:44:51.484Z,36.86
2018-04-30T09:45:51.936Z,36.19
2018-04-30T09:46:52.404Z,35.80
2018-04-30T09:47:55.685Z,36.66
2018-04-30T09:48:53.349Z,37.17
2018-04-30T09:49:53.815Z,35.26
2018-04-30T09:50:54.277Z,35.00
2018-04-30T09:51:54.744Z,35.73
2018-04-30T09:52:55.211Z,40.23
2018-04-30T09:53:55.691Z,43.91
2018-04-30T09:54:56.159Z,43.68
2018-04-30T09:55:56.622Z,41.66
2018-04-30T09:56:57.091Z,41.15
2018-04-30T09:57:57.603Z,39.06
2018-04-30T09:58:58.026Z,37.21
2018-04-30T09:59:58.503Z,38.41
2018-04-30T10:00:58.960Z,37.07
2018-04-30T10:01:59.441Z,36.01
2018-04-30T10:02:59.899Z,35.91
2018-04-30T10:04:00.372Z,34.93
2018-04-30T10:05:00.840Z,35.23
2018-04-30T10:06:01.305Z,35.13
2018-04-30T10:07:01.780Z,37.04
2018-04-30T10:08:02.249Z,37.87
2018-04-30T10:09:02.719Z,39.33
2018-04-30T10:10:03.189Z,39.33
2018-04-30T10:11:03.654Z,39.41
2018-04-30T10:12:04.127Z,40.48
2018-04-30T10:13:04.591Z,41.64
2018-04-30T10:14:05.060Z,41.13
2018-04-30T10:15:05.605Z,42.09
2018-04-30T10:16:05.998Z,43.16
2018-04-30T10:17:06.471Z,46.10
2018-04-30T10:18:06.931Z,46.14
2018-04-30T10:19:07.403Z,45.58
2018-04-30T10:20:07.876Z,46.69
2018-04-30T10:21:08.334Z,50.31
2018-04-30T10:22:08.800Z,49.95
2018-04-30T10:23:09.272Z,49.56
2018-04-30T10:24:09.735Z,50.78
2018-04-30T10:25:10.193Z,51.94
2018-04-30T10:26:10.664Z,51.77
2018-04-30T10:27:11.123Z,54.56
2018-04-30T10:28:11.587Z,54.78
2018-04-30T10:29:12.089Z,53.83
2018-04-30T10:30:12.543Z,53.54
2018-04-30T10:31:12.967Z,52.72
2018-04-30T10:32:13.429Z,53.28
2018-04-30T10:33:13.893Z,53.11
2018-04-30T10:34:14.348Z,54.05
2018-04-30T10:35:14.809Z,55.43
2018-04-30T10:36:15.270Z,55.87
2018-04-30T10:37:15.735Z,57.87
2018-04-30T10:38:16.189Z,57.12
2018-04-30T10:39:16.643Z,56.35
2018-04-30T10:40:17.117Z,56.51
2018-04-30T10:41:17.559Z,57.09
2018-04-30T10:42:18.023Z,57.94
2018-04-30T10:43:18.476Z,58.78
2018-04-30T10:44:18.931Z,60.27
2018-04-30T10:45:19.381Z,63.63
2018-04-30T10:46:19.846Z,64.37
2018-04-30T10:47:20.286Z,64.95
2018-04-30T10:48:20.749Z,65.82
2018-04-30T10:49:21.193Z,67.40
2018-04-30T10:50:21.640Z,66.75
2018-04-30T10:51:22.097Z,66.01
2018-04-30T10:52:22.550Z,65.34
2018-04-30T10:53:22.997Z,64.66
2018-04-30T10:54:23.447Z,65.20
2018-04-30T10:55:23.896Z,65.56
2018-04-30T10:56:24.342Z,66.50
2018-04-30T10:57:24.798Z,65.24
2018-04-30T10:58:25.247Z,64.04
2018-04-30T10:59:25.718Z,61.53
2018-04-30T11:00:26.147Z,60.88
2018-04-30T11:01:26.595Z,61.56
2018-04-30T11:02:27.039Z,61.24
2018-04-30T11:03:27.492Z,61.05
2018-04-30T11:04:27.945Z,62.08
2018-04-30T11:05:28.388Z,62.85
2018-04-30T11:06:28.848Z,63.11
2018-04-30T11:07:29.303Z,63.95
2018-04-30T11:08:29.739Z,65.27
2018-04-30T11:09:30.194Z,65.50
2018-04-30T11:10:30.626Z,66.75
2018-04-30T11:11:31.091Z,67.11
2018-04-30T11:12:31.553Z,67.11
2018-04-30T11:13:31.976Z,68.33
2018-04-30T11:14:32.439Z,70.70
2018-04-30T11:15:32.884Z,70.61
2018-04-30T11:16:33.319Z,71.09
2018-04-30T11:17:33.763Z,71.28
2018-04-30T11:18:34.207Z,71.96
2018-04-30T11:19:34.651Z,72.06
2018-04-30T11:20:35.107Z,71.28
2018-04-30T11:21:35.543Z,73.57
2018-04-30T11:22:35.995Z,74.05
2018-04-30T11:23:36.438Z,74.62
2018-04-30T11:24:36.879Z,73.31
2018-04-30T11:25:37.324Z,71.28
2018-04-30T11:26:37.771Z,71.19
2018-04-30T11:27:38.277Z,71.19
2018-04-30T11:28:38.665Z,71.34
2018-04-30T11:29:39.112Z,71.28
2018-04-30T11:30:39.549Z,71.86
2018-04-30T11:31:39.994Z,71.28
2018-04-30T11:32:40.438Z,71.09
2018-04-30T11:33:40.885Z,71.54
2018-04-30T11:34:41.323Z,72.79
2018-04-30T11:35:41.797Z,74.20
2018-04-30T11:36:42.216Z,74.68
2018-04-30T11:37:42.655Z,74.58
2018-04-30T11:38:43.100Z,74.97
2018-04-30T11:39:43.549Z,74.49
2018-04-30T11:40:43.984Z,75.65
2018-04-30T11:41:44.443Z,75.74
2018-04-30T11:42:44.876Z,75.07
2018-04-30T11:43:45.314Z,74.82
2018-04-30T11:44:45.770Z,73.21
2018-04-30T11:45:46.203Z,71.86
2018-04-30T11:46:46.660Z,71.28
2018-04-30T11:47:47.086Z,71.48
2018-04-30T11:48:47.534Z,71.67
2018-04-30T11:49:47.983Z,70.74
2018-04-30T11:50:48.437Z,71.09
2018-04-30T11:51:48.866Z,71.28
2018-04-30T11:52:49.318Z,70.45
2018-04-30T11:53:49.764Z,71.19
2018-04-30T11:54:50.201Z,72.50
2018-04-30T11:55:50.653Z,74.05
2018-04-30T11:56:51.093Z,74.40
2018-04-30T11:57:51.532Z,75.26
2018-04-30T11:58:51.980Z,74.97
2018-04-30T11:59:52.425Z,75.07
2018-04-30T12:00:52.865Z,74.05
2018-04-30T12:01:53.312Z,74.20
2018-04-30T12:02:53.755Z,74.52
2018-04-30T12:03:54.198Z,72.92
2018-04-30T12:04:54.693Z,71.42
2018-04-30T12:05:55.088Z,71.70
2018-04-30T12:06:55.542Z,71.48
2018-04-30T12:07:57.868Z,71.38
2018-04-30T12:08:56.432Z,70.42
2018-04-30T12:09:56.861Z,69.20
2018-04-30T12:10:57.325Z,69.10
2018-04-30T12:11:57.837Z,69.49
2018-04-30T12:12:58.202Z,67.17
2018-04-30T12:13:58.640Z,66.30
2018-04-30T12:14:59.091Z,65.43
2018-04-30T12:15:59.533Z,64.08
2018-04-30T12:16:59.973Z,64.08
2018-04-30T12:18:00.425Z,63.89
2018-04-30T12:19:03.788Z,63.95
2018-04-30T12:20:02.301Z,63.12
2018-04-30T12:21:01.762Z,62.31
2018-04-30T12:22:02.258Z,61.74
2018-04-30T12:23:02.654Z,63.76
2018-04-30T12:24:03.088Z,64.31
2018-04-30T12:25:03.525Z,66.62
2018-04-30T12:26:03.980Z,67.65
2018-04-30T12:27:04.420Z,70.64
2018-04-30T12:28:04.859Z,70.83
2018-04-30T12:29:05.316Z,69.19
2018-04-30T12:30:05.743Z,69.77
2018-04-30T12:31:06.241Z,69.09
2018-04-30T12:32:06.628Z,71.02
2018-04-30T12:33:07.078Z,73.72
2018-04-30T12:34:07.513Z,72.66
2018-04-30T12:35:07.957Z,71.12
2018-04-30T12:36:08.492Z,71.70
2018-04-30T12:37:08.848Z,68.52
2018-04-30T12:38:09.283Z,67.07
2018-04-30T12:39:09.735Z,66.69
2018-04-30T12:40:10.175Z,66.82
2018-04-30T12:41:10.616Z,65.75
2018-04-30T12:42:11.053Z,64.59
2018-04-30T12:43:11.504Z,65.56
2018-04-30T12:44:11.940Z,64.31
2018-04-30T12:45:12.384Z,64.66
2018-04-30T12:46:12.827Z,63.44
2018-04-30T12:47:13.270Z,61.71
2018-04-30T12:48:13.717Z,61.25
2018-04-30T12:49:14.164Z,60.16
2018-04-30T12:50:14.601Z,60.00
2018-04-30T12:51:15.051Z,59.13
2018-04-30T12:52:15.491Z,59.32
2018-04-30T12:53:15.931Z,58.42
2018-04-30T12:54:16.382Z,58.69
2018-04-30T12:55:16.822Z,59.45
2018-04-30T12:56:17.263Z,60.23
2018-04-30T12:57:17.709Z,60.06
2018-04-30T12:58:18.157Z,57.24
2018-04-30T12:59:18.591Z,58.01
2018-04-30T13:00:19.038Z,57.72
2018-04-30T13:01:19.476Z,57.43
2018-04-30T13:02:19.923Z,57.53
2018-04-30T13:03:20.359Z,57.34
2018-04-30T13:04:20.805Z,57.43
2018-04-30T13:05:21.246Z,57.14
2018-04-30T13:06:21.690Z,57.62
2018-04-30T13:07:22.129Z,56.69
2018-04-30T13:08:22.576Z,55.92
2018-04-30T13:09:23.015Z,56.18